Joice, IA (50446)

10:02 PM CDT on August 27, 2016 (GMT -0500)
3 miles north of Fertile, IA | | Change Station

Elev 1240 ft 43.31 °N, 93.42 °W | Updated 2 seconds ago

Scattered Clouds
Scattered Clouds
68.8 °F
Feels Like 68.8 °F
N
0.0
Wind Variable Wind from ESE
Gusts 0.0 mph

Today
High -- | Low -- °F
--% Chance of Precip.
Yesterday
High -- | Low -- °F
Precip. -- in
Pressure 30.06 in
Visibility 10.0 miles
Clouds Few 2000 ft
Scattered Clouds 2700 ft
Dew Point 66 °F
Humidity 92%
Rainfall 0.04 in
Snow Depth Not available.
6:32 AM 7:56 PM
Waning Crescent, 19% visible
METAR KMCW 280253Z AUTO 00000KT 10SM FEW020 SCT027 19/18 A3008 RMK AO2 SLP178 T01890183 53014 $
Pressure 30.06 in
Visibility 10.0 miles
Clouds Few 2000 ft
Scattered Clouds 2700 ft
Dew Point 66 °F
Humidity 92%
Rainfall 0.04 in
Snow Depth Not available.
6:32 AM 7:56 PM
Waning Crescent, 19% visible
METAR KMCW 280253Z AUTO 00000KT 10SM FEW020 SCT027 19/18 A3008 RMK AO2 SLP178 T01890183 53014 $

10-Day Weather Forecast

Almanac

Astronomy

Aug. 27, 2016 Rise Set
Actual Time
Civil Twilight
Nautical Twilight
Astronomical Twilight
Moon
Length of Visible Light
Length of Day
Tomorrow will be .
, % of the Moon is Illuminated

Today's Extremes

State Highs State Lows

Community

WunderPhotos

Upload Photos

1,935,511 photos uploaded!

WunderBlog® & News

Nearby

Air Quality

  Air Quality AQ Index Pollutant
Not available.

Snow Depth

Station Depth Elevation

Earthquake Activity

City Distance Mag. Time & Date
Minimum magnitude displayed is 2.5.

Coastal Water Temperatures

Place Temperature

Stations

Nearby Weather Stations

Station Location Temp. Windchill Dew Point Humidity Wind Precip. Elev Updated Type
                   

Watches & Warnings

There are currently no watches in effect.